createdAt,value
2022-09-03T00:00:15.226Z,49.21
2022-09-03T00:02:53.545Z,49.00
2022-09-03T00:05:50.193Z,49.43
2022-09-03T00:08:46.949Z,49.62
2022-09-03T00:11:28.705Z,49.04
2022-09-03T00:14:06.184Z,49.90
2022-09-03T00:16:52.178Z,49.43
2022-09-03T00:19:29.361Z,49.49
2022-09-03T00:22:07.958Z,49.30
2022-09-03T00:24:41.180Z,49.30
2022-09-03T00:27:17.456Z,49.44
2022-09-03T00:29:54.351Z,49.24
2022-09-03T00:32:39.487Z,49.46
2022-09-03T00:35:16.977Z,49.27
2022-09-03T00:37:49.125Z,49.22
2022-09-03T00:40:58.973Z,50.03
2022-09-03T00:43:32.870Z,49.40
2022-09-03T00:46:36.220Z,50.11
2022-09-03T00:49:33.227Z,50.76
2022-09-03T00:52:17.262Z,50.36
2022-09-03T00:55:11.976Z,50.33
2022-09-03T00:57:56.855Z,50.38
2022-09-03T01:00:29.300Z,50.04
2022-09-03T01:03:11.126Z,50.25
2022-09-03T01:05:43.703Z,49.95
2022-09-03T01:08:51.576Z,50.68
2022-09-03T01:11:40.367Z,50.40
2022-09-03T01:14:36.475Z,49.90
2022-09-03T01:17:50.955Z,50.62
2022-09-03T01:20:31.938Z,50.47
2022-09-03T01:23:44.324Z,50.45
2022-09-03T01:26:27.005Z,50.36
2022-09-03T01:29:20.585Z,50.88
2022-09-03T01:32:09.924Z,50.91
2022-09-03T01:34:47.976Z,50.83
2022-09-03T01:37:29.854Z,50.04
2022-09-03T01:40:10.173Z,50.58
2022-09-03T01:43:39.237Z,50.77
2022-09-03T01:46:22.649Z,50.54
2022-09-03T01:49:12.067Z,51.06
2022-09-03T01:51:44.041Z,50.47
2022-09-03T01:54:34.930Z,50.59
2022-09-03T01:57:37.057Z,51.37
2022-09-03T02:00:14.346Z,50.82
2022-09-03T02:02:48.823Z,50.70
2022-09-03T02:05:25.776Z,51.11
2022-09-03T02:08:01.013Z,51.30
2022-09-03T02:10:49.244Z,51.36
2022-09-03T02:13:25.865Z,51.25
2022-09-03T02:16:01.129Z,51.23
2022-09-03T02:18:39.078Z,51.24
2022-09-03T02:21:11.200Z,51.08
2022-09-03T02:23:43.715Z,50.99
2022-09-03T02:26:19.410Z,51.73
2022-09-03T02:28:52.331Z,51.46
2022-09-03T02:31:24.645Z,51.29
2022-09-03T02:33:58.024Z,51.41
2022-09-03T02:36:33.266Z,51.63
2022-09-03T02:39:06.050Z,51.41
2022-09-03T02:41:38.058Z,51.41
2022-09-03T02:44:33.678Z,51.81
2022-09-03T02:47:07.568Z,51.67
2022-09-03T02:49:39.596Z,51.81
2022-09-03T02:52:12.295Z,52.07
2022-09-03T02:54:45.621Z,51.55
2022-09-03T02:57:18.398Z,51.66
2022-09-03T02:59:59.465Z,51.56
2022-09-03T03:02:31.873Z,52.07
2022-09-03T03:05:04.760Z,51.87
2022-09-03T03:07:38.276Z,51.91
2022-09-03T03:10:10.535Z,51.78
2022-09-03T03:12:42.553Z,51.84
2022-09-03T03:15:15.268Z,51.70
2022-09-03T03:17:47.231Z,51.91
2022-09-03T03:20:19.664Z,51.90
2022-09-03T03:22:51.598Z,51.86
2022-09-03T03:25:23.493Z,51.85
2022-09-03T03:27:57.059Z,51.61
2022-09-03T03:30:29.178Z,51.69
2022-09-03T03:33:01.493Z,51.70
2022-09-03T03:35:33.529Z,51.65
2022-09-03T03:38:05.553Z,51.89
2022-09-03T03:40:40.713Z,52.01
2022-09-03T03:43:12.730Z,51.78
2022-09-03T03:45:44.776Z,51.63
2022-09-03T03:48:16.700Z,52.04
2022-09-03T03:50:49.159Z,52.18
2022-09-03T03:53:21.327Z,51.94
2022-09-03T03:55:57.665Z,51.87
2022-09-03T03:58:31.205Z,52.04
2022-09-03T04:01:17.394Z,52.07
2022-09-03T04:03:49.997Z,52.09
2022-09-03T04:06:22.084Z,52.30
2022-09-03T04:08:54.108Z,52.27
2022-09-03T04:11:26.511Z,52.33
2022-09-03T04:13:58.559Z,52.37
2022-09-03T04:16:31.997Z,52.15
2022-09-03T04:19:04.002Z,52.38
2022-09-03T04:21:36.810Z,52.39
2022-09-03T04:24:09.049Z,52.70
2022-09-03T04:26:41.345Z,52.59
2022-09-03T04:29:13.388Z,52.81
2022-09-03T04:32:05.335Z,52.99
2022-09-03T04:34:37.374Z,52.88
2022-09-03T04:37:10.011Z,52.86
2022-09-03T04:39:41.986Z,52.81
2022-09-03T04:42:14.388Z,52.84
2022-09-03T04:44:46.281Z,52.86
2022-09-03T04:47:18.346Z,52.69
2022-09-03T04:49:50.251Z,53.01
2022-09-03T04:52:22.164Z,52.88
2022-09-03T04:54:54.131Z,53.05
2022-09-03T04:57:34.336Z,53.17
2022-09-03T05:00:11.633Z,53.36
2022-09-03T05:02:47.095Z,53.26
2022-09-03T05:05:19.366Z,53.54
2022-09-03T05:07:51.277Z,53.33
2022-09-03T05:10:24.087Z,53.34
2022-09-03T05:13:00.098Z,53.62
2022-09-03T05:15:33.104Z,53.57
2022-09-03T05:18:05.990Z,53.26
2022-09-03T05:20:38.119Z,53.09
2022-09-03T05:23:10.456Z,52.95
2022-09-03T05:25:42.393Z,53.10
2022-09-03T05:28:14.720Z,53.46
2022-09-03T05:30:46.611Z,53.16
2022-09-03T05:33:20.971Z,53.01
2022-09-03T05:35:53.759Z,52.85
2022-09-03T05:38:25.658Z,52.79
2022-09-03T05:41:01.378Z,52.96
2022-09-03T05:43:34.567Z,52.96
2022-09-03T05:46:12.540Z,53.05
2022-09-03T05:48:45.067Z,52.97
2022-09-03T05:51:17.737Z,52.46
2022-09-03T05:53:49.752Z,52.72
2022-09-03T05:56:23.917Z,52.80
2022-09-03T05:59:05.583Z,52.89
2022-09-03T06:01:39.986Z,53.04
2022-09-03T06:04:15.093Z,53.15
2022-09-03T06:06:48.284Z,52.91
2022-09-03T06:09:23.564Z,52.79
2022-09-03T06:11:57.370Z,52.98
2022-09-03T06:14:30.574Z,52.87
2022-09-03T06:17:02.559Z,52.77
2022-09-03T06:19:34.505Z,52.68
2022-09-03T06:22:06.695Z,52.75
2022-09-03T06:24:38.639Z,52.78
2022-09-03T06:27:10.624Z,52.61
2022-09-03T06:29:43.165Z,52.97
2022-09-03T06:32:15.331Z,52.71
2022-09-03T06:34:47.311Z,52.62
2022-09-03T06:37:19.595Z,52.64
2022-09-03T06:39:51.822Z,52.28
2022-09-03T06:42:24.326Z,52.78
2022-09-03T06:44:57.521Z,52.56
2022-09-03T06:47:29.387Z,52.76
2022-09-03T06:50:02.172Z,52.67
2022-09-03T06:52:34.292Z,52.47
2022-09-03T06:55:06.893Z,52.56
2022-09-03T06:57:39.129Z,52.37
2022-09-03T07:00:11.658Z,52.87
2022-09-03T07:02:45.182Z,52.44
2022-09-03T07:05:17.049Z,52.23
2022-09-03T07:07:48.999Z,52.43
2022-09-03T07:10:21.859Z,52.27
2022-09-03T07:12:55.955Z,52.33
2022-09-03T07:15:28.348Z,51.85
2022-09-03T07:18:01.001Z,51.42
2022-09-03T07:20:35.504Z,50.76
2022-09-03T07:23:07.401Z,50.56
2022-09-03T07:25:39.331Z,50.81
2022-09-03T07:28:12.005Z,50.51
2022-09-03T07:30:43.985Z,50.55
2022-09-03T07:33:17.483Z,50.33
2022-09-03T07:35:50.206Z,50.15
2022-09-03T07:38:23.650Z,50.26
2022-09-03T07:40:59.924Z,49.93
2022-09-03T07:43:47.056Z,50.89
2022-09-03T07:46:23.707Z,49.86
2022-09-03T07:48:58.057Z,49.75
2022-09-03T07:51:32.320Z,49.55
2022-09-03T07:54:07.690Z,49.58
2022-09-03T07:56:40.504Z,49.28
2022-09-03T07:59:12.839Z,49.24
2022-09-03T08:01:47.928Z,48.89
2022-09-03T08:04:20.692Z,48.70
2022-09-03T08:06:55.611Z,48.57
2022-09-03T08:09:27.767Z,48.47
2022-09-03T08:11:59.763Z,48.66
2022-09-03T08:14:31.779Z,48.50
2022-09-03T08:17:03.955Z,48.45
2022-09-03T08:19:36.116Z,47.91
2022-09-03T08:22:08.456Z,47.55
2022-09-03T08:24:41.602Z,47.49
2022-09-03T08:27:16.316Z,47.21
2022-09-03T08:29:49.601Z,47.21
2022-09-03T08:32:21.639Z,47.16
2022-09-03T08:34:53.547Z,47.22
2022-09-03T08:37:29.027Z,46.52
2022-09-03T08:40:01.075Z,46.68
2022-09-03T08:42:49.116Z,46.16
2022-09-03T08:45:21.649Z,46.54
2022-09-03T08:48:06.596Z,47.28
2022-09-03T08:50:42.241Z,47.03
2022-09-03T08:53:22.139Z,46.61
2022-09-03T08:56:05.073Z,47.06
2022-09-03T08:58:38.680Z,46.81
2022-09-03T09:01:24.300Z,46.64
2022-09-03T09:04:08.737Z,45.76
2022-09-03T09:06:43.463Z,45.67
2022-09-03T09:09:35.673Z,45.59
2022-09-03T09:12:14.365Z,45.51
2022-09-03T09:15:13.680Z,45.26
2022-09-03T09:17:54.871Z,45.13
2022-09-03T09:20:42.656Z,44.49
2022-09-03T09:23:20.095Z,44.26
2022-09-03T09:25:54.502Z,44.48
2022-09-03T09:28:34.000Z,44.19
2022-09-03T09:31:08.918Z,43.96
2022-09-03T09:33:41.938Z,43.80
2022-09-03T09:36:17.646Z,42.90
2022-09-03T09:38:49.708Z,42.75
2022-09-03T09:41:28.910Z,42.29
2022-09-03T09:44:03.348Z,42.21
2022-09-03T09:46:38.838Z,42.21
2022-09-03T09:49:31.997Z,41.84
2022-09-03T09:52:12.007Z,40.38
2022-09-03T09:54:48.316Z,41.35
2022-09-03T09:57:26.116Z,40.42
2022-09-03T10:00:10.357Z,39.91
2022-09-03T10:02:56.517Z,39.59
2022-09-03T10:05:40.623Z,40.45
2022-09-03T10:08:21.325Z,39.46
2022-09-03T10:10:53.208Z,40.10
2022-09-03T10:13:30.952Z,39.76
2022-09-03T10:16:08.848Z,39.94
2022-09-03T10:19:05.738Z,38.53
2022-09-03T10:21:56.108Z,38.57
2022-09-03T10:24:40.178Z,38.86
2022-09-03T10:27:13.431Z,39.67
2022-09-03T10:29:45.484Z,39.28
2022-09-03T10:32:40.436Z,38.58
2022-09-03T10:35:28.805Z,39.31
2022-09-03T10:38:26.524Z,38.82
2022-09-03T10:41:14.192Z,38.91
2022-09-03T10:44:28.826Z,38.00
2022-09-03T10:47:13.025Z,38.15
2022-09-03T10:49:52.236Z,37.38
2022-09-03T10:53:01.201Z,37.89
2022-09-03T10:55:59.077Z,38.33
2022-09-03T10:58:31.106Z,38.51
2022-09-03T11:01:40.355Z,38.31
2022-09-03T11:04:20.068Z,38.48
2022-09-03T11:06:55.476Z,38.29
2022-09-03T11:09:36.846Z,38.37
2022-09-03T11:12:12.581Z,37.63
2022-09-03T11:14:50.724Z,37.71
2022-09-03T11:17:26.648Z,37.85
2022-09-03T11:20:21.326Z,35.99
2022-09-03T11:22:57.620Z,36.55
2022-09-03T11:25:35.806Z,36.60
2022-09-03T11:28:21.405Z,34.89
2022-09-03T11:31:15.304Z,34.55
2022-09-03T11:33:58.819Z,33.88
2022-09-03T11:36:36.408Z,34.56
2022-09-03T11:39:33.937Z,31.86
2022-09-03T11:42:11.531Z,31.91
2022-09-03T11:44:51.248Z,31.90
2022-09-03T11:47:36.107Z,31.16
2022-09-03T11:50:20.670Z,29.31
2022-09-03T11:53:11.534Z,26.78
2022-09-03T11:56:06.230Z,26.50
2022-09-03T11:58:40.539Z,27.68
2022-09-03T12:01:16.108Z,26.74
2022-09-03T12:03:57.396Z,25.30
2022-09-03T12:06:35.240Z,24.94
2022-09-03T12:09:26.089Z,25.02
2022-09-03T12:12:07.145Z,22.85
2022-09-03T12:14:39.079Z,23.75
2022-09-03T12:17:28.418Z,22.35
2022-09-03T12:20:00.348Z,23.22
2022-09-03T12:22:38.773Z,23.23
2022-09-03T12:25:15.608Z,22.86
2022-09-03T12:27:49.419Z,22.97
2022-09-03T12:30:23.987Z,22.45
2022-09-03T12:33:09.253Z,22.02
2022-09-03T12:38:44.578Z,22.07
2022-09-03T12:41:31.074Z,21.91
2022-09-03T12:44:03.752Z,21.51
2022-09-03T12:46:35.948Z,20.91
2022-09-03T12:52:06.062Z,20.54
2022-09-03T12:54:45.452Z,20.45
2022-09-03T12:57:25.487Z,20.26
2022-09-03T13:00:03.831Z,20.22
2022-09-03T13:02:46.337Z,19.69
2022-09-03T13:05:22.101Z,19.27
2022-09-03T13:07:56.440Z,19.51
2022-09-03T13:10:38.280Z,19.46
2022-09-03T13:13:28.019Z,17.97
2022-09-03T13:16:09.085Z,18.28
2022-09-03T13:19:06.159Z,17.79
2022-09-03T13:22:15.309Z,17.58
2022-09-03T13:24:49.625Z,18.66
2022-09-03T13:27:37.300Z,18.49
2022-09-03T13:30:11.910Z,18.44
2022-09-03T13:32:57.447Z,18.05
2022-09-03T13:35:50.319Z,17.87
2022-09-03T13:38:39.773Z,18.15
2022-09-03T13:41:36.550Z,18.56
2022-09-03T13:44:18.341Z,19.11
2022-09-03T13:47:00.541Z,18.44
2022-09-03T13:49:58.568Z,19.00
2022-09-03T13:52:45.448Z,19.04
2022-09-03T13:55:39.118Z,19.10
2022-09-03T13:58:41.679Z,18.04
2022-09-03T14:01:20.485Z,18.81
2022-09-03T14:03:58.017Z,18.63
2022-09-03T14:06:51.853Z,18.69
2022-09-03T14:09:35.003Z,19.64
2022-09-03T14:12:25.594Z,20.38
2022-09-03T14:15:11.383Z,21.77
2022-09-03T14:17:46.290Z,21.52
2022-09-03T14:20:27.391Z,22.96
2022-09-03T14:23:07.594Z,23.08
2022-09-03T14:25:44.879Z,23.74
2022-09-03T14:28:38.395Z,24.81
2022-09-03T14:31:27.026Z,25.74
2022-09-03T14:34:04.918Z,25.26
2022-09-03T14:36:38.960Z,25.42
2022-09-03T14:39:22.767Z,26.48
2022-09-03T14:42:04.515Z,26.60
2022-09-03T14:44:50.811Z,26.90
2022-09-03T14:47:55.322Z,26.62
2022-09-03T14:50:35.937Z,28.07
2022-09-03T14:53:14.934Z,27.56
2022-09-03T14:56:08.511Z,27.64
2022-09-03T14:58:58.558Z,28.08
2022-09-03T15:01:39.235Z,28.31
2022-09-03T15:04:28.474Z,28.51
2022-09-03T15:07:13.154Z,28.21
2022-09-03T15:10:15.921Z,29.99
2022-09-03T15:12:59.228Z,29.24
2022-09-03T15:15:42.768Z,28.95
2022-09-03T15:18:30.896Z,28.69
2022-09-03T15:21:16.617Z,28.72
2022-09-03T15:24:18.102Z,29.11
2022-09-03T15:27:08.567Z,29.38
2022-09-03T15:29:53.774Z,29.48
2022-09-03T15:32:35.542Z,29.59
2022-09-03T15:35:10.419Z,29.33
2022-09-03T15:38:00.644Z,29.75
2022-09-03T15:40:37.426Z,29.81
2022-09-03T15:43:12.709Z,30.51
2022-09-03T15:45:47.595Z,30.26
2022-09-03T15:48:31.344Z,30.87
2022-09-03T15:51:15.658Z,31.33
2022-09-03T15:54:03.915Z,31.65
2022-09-03T15:56:47.636Z,30.66
2022-09-03T15:59:25.807Z,30.82
2022-09-03T16:02:05.895Z,30.82
2022-09-03T16:04:49.168Z,30.54
2022-09-03T16:07:27.532Z,30.90
2022-09-03T16:10:26.082Z,30.95
2022-09-03T16:13:19.491Z,31.13
2022-09-03T16:16:07.156Z,31.77
2022-09-03T16:18:45.596Z,31.63
2022-09-03T16:21:23.685Z,31.12
2022-09-03T16:23:58.947Z,31.26
2022-09-03T16:26:33.658Z,31.13
2022-09-03T16:29:13.823Z,31.42
2022-09-03T16:31:57.843Z,31.54
2022-09-03T16:34:49.302Z,32.27
2022-09-03T16:37:44.543Z,32.35
2022-09-03T16:40:33.514Z,32.68
2022-09-03T16:43:29.928Z,32.07
2022-09-03T16:46:06.558Z,31.91
2022-09-03T16:48:49.386Z,32.10
2022-09-03T16:51:28.337Z,31.96
2022-09-03T16:54:09.225Z,32.22
2022-09-03T16:56:50.993Z,32.15
2022-09-03T16:59:42.418Z,32.76
2022-09-03T17:02:42.603Z,32.41
2022-09-03T17:05:36.506Z,32.64
2022-09-03T17:08:25.432Z,32.78
2022-09-03T17:11:13.188Z,33.83
2022-09-03T17:14:12.450Z,33.93
2022-09-03T17:17:06.696Z,33.45
2022-09-03T17:19:44.339Z,33.44
2022-09-03T17:22:44.524Z,33.01
2022-09-03T17:25:29.901Z,33.08
2022-09-03T17:28:21.446Z,33.37
2022-09-03T17:30:58.770Z,33.39
2022-09-03T17:34:01.458Z,34.06
2022-09-03T17:36:37.851Z,34.26
2022-09-03T17:39:22.343Z,34.03
2022-09-03T17:42:00.977Z,34.36
2022-09-03T17:44:50.693Z,35.30
2022-09-03T17:47:41.037Z,34.82
2022-09-03T17:50:24.920Z,34.74
2022-09-03T17:53:00.295Z,34.57
2022-09-03T17:55:37.129Z,34.73
2022-09-03T17:58:13.462Z,35.09
2022-09-03T18:01:18.785Z,35.25
2022-09-03T18:04:11.984Z,35.45
2022-09-03T18:07:19.590Z,35.26
2022-09-03T18:10:07.384Z,35.54
2022-09-03T18:13:03.140Z,35.43
2022-09-03T18:15:39.635Z,35.19
2022-09-03T18:18:21.051Z,35.59
2022-09-03T18:21:25.216Z,35.39
2022-09-03T18:24:50.930Z,35.60
2022-09-03T18:27:51.563Z,35.64
2022-09-03T18:30:42.717Z,35.70
2022-09-03T18:33:36.888Z,35.77
2022-09-03T18:36:27.770Z,35.95
2022-09-03T18:39:33.160Z,36.03
2022-09-03T18:42:28.610Z,36.32
2022-09-03T18:45:22.146Z,36.09
2022-09-03T18:48:22.041Z,36.38
2022-09-03T18:51:44.773Z,36.27
2022-09-03T18:55:07.938Z,36.22
2022-09-03T18:58:21.415Z,37.03
2022-09-03T19:01:23.046Z,36.96
2022-09-03T19:04:40.957Z,37.96
2022-09-03T19:07:42.201Z,37.11
2022-09-03T19:10:36.880Z,37.33
2022-09-03T19:13:30.323Z,37.25
2022-09-03T19:16:44.063Z,37.37
2022-09-03T19:20:12.539Z,37.63
2022-09-03T19:23:03.215Z,37.22
2022-09-03T19:25:55.036Z,37.33
2022-09-03T19:28:48.540Z,37.90
2022-09-03T19:32:01.415Z,38.59
2022-09-03T19:35:10.635Z,37.95
2022-09-03T19:38:22.981Z,39.72
2022-09-03T19:41:46.379Z,39.33
2022-09-03T19:44:55.840Z,38.35
2022-09-03T19:48:01.412Z,38.68
2022-09-03T19:50:56.373Z,39.39
2022-09-03T19:53:48.826Z,38.58
2022-09-03T19:56:46.788Z,39.20
2022-09-03T19:59:39.738Z,39.18
2022-09-03T20:02:30.412Z,38.77
2022-09-03T20:05:22.290Z,39.12
2022-09-03T20:08:14.137Z,39.07
2022-09-03T20:10:48.558Z,39.23
2022-09-03T20:13:20.977Z,39.34
2022-09-03T20:16:16.773Z,39.02
2022-09-03T20:18:57.626Z,39.19
2022-09-03T20:21:43.819Z,39.34
2022-09-03T20:24:56.703Z,39.70
2022-09-03T20:27:34.474Z,39.62
2022-09-03T20:30:38.385Z,40.26
2022-09-03T20:33:44.901Z,40.05
2022-09-03T20:36:51.486Z,40.46
2022-09-03T20:39:35.401Z,39.85
2022-09-03T20:42:21.835Z,40.61
2022-09-03T20:45:06.579Z,40.25
2022-09-03T20:48:00.067Z,40.88
2022-09-03T20:50:51.039Z,41.19
2022-09-03T20:53:55.399Z,41.70
2022-09-03T20:56:36.968Z,40.83
2022-09-03T20:59:25.523Z,40.79
2022-09-03T21:02:00.053Z,41.18
2022-09-03T21:04:41.051Z,40.94
2022-09-03T21:07:22.544Z,41.37
2022-09-03T21:10:02.741Z,42.09
2022-09-03T21:13:00.546Z,42.30
2022-09-03T21:15:56.672Z,43.02
2022-09-03T21:18:46.853Z,43.37
2022-09-03T21:21:44.971Z,43.93
2022-09-03T21:24:22.218Z,43.92
2022-09-03T21:26:59.447Z,43.84
2022-09-03T21:29:38.219Z,44.15
2022-09-03T21:32:23.017Z,44.91
2022-09-03T21:35:12.103Z,46.41
2022-09-03T21:37:50.934Z,45.95
2022-09-03T21:40:24.607Z,44.82
2022-09-03T21:43:10.202Z,46.58
2022-09-03T21:45:49.988Z,46.78
2022-09-03T21:48:35.643Z,47.35
2022-09-03T21:51:14.040Z,46.74
2022-09-03T21:53:55.604Z,48.25
2022-09-03T21:56:46.266Z,48.81
2022-09-03T21:59:55.288Z,49.22
2022-09-03T22:02:29.171Z,47.67
2022-09-03T22:05:03.512Z,47.86
2022-09-03T22:07:50.753Z,49.60
2022-09-03T22:10:37.729Z,49.94
2022-09-03T22:13:32.357Z,50.86
2022-09-03T22:16:23.715Z,50.95
2022-09-03T22:18:55.867Z,49.49
2022-09-03T22:21:40.414Z,50.91
2022-09-03T22:24:22.837Z,50.87
2022-09-03T22:27:15.720Z,52.50
2022-09-03T22:29:59.233Z,52.48
2022-09-03T22:32:55.665Z,52.05
2022-09-03T22:35:36.616Z,51.35
2022-09-03T22:38:17.161Z,52.69
2022-09-03T22:41:17.054Z,53.68
2022-09-03T22:44:01.944Z,52.39
2022-09-03T22:46:49.847Z,53.94
2022-09-03T22:49:32.373Z,54.21
2022-09-03T22:52:12.881Z,54.04
2022-09-03T22:55:18.529Z,54.57
2022-09-03T22:57:56.430Z,53.68
2022-09-03T23:00:30.388Z,53.40
2022-09-03T23:03:16.059Z,55.13
2022-09-03T23:05:56.830Z,54.69
2022-09-03T23:08:35.365Z,54.21
2022-09-03T23:11:13.313Z,54.54
2022-09-03T23:13:47.717Z,54.09
2022-09-03T23:16:22.440Z,54.04
2022-09-03T23:18:56.247Z,54.04
2022-09-03T23:21:39.164Z,55.11
2022-09-03T23:24:16.811Z,54.98
2022-09-03T23:26:52.535Z,54.64
2022-09-03T23:29:33.718Z,55.02
2022-09-03T23:32:05.903Z,54.43
2022-09-03T23:34:40.538Z,54.49
2022-09-03T23:37:40.530Z,56.00
2022-09-03T23:40:34.525Z,56.26
2022-09-03T23:43:22.626Z,54.83
2022-09-03T23:46:19.513Z,55.67
2022-09-03T23:49:13.127Z,55.60
2022-09-03T23:51:54.288Z,56.17
2022-09-03T23:54:40.613Z,56.83
2022-09-03T23:57:33.324Z,56.76
